sensor_id;sensor_type;location;lat;lon;timestamp;P1;durP1;ratioP1;P2;durP2;ratioP2
20038;SDS011;21737;42.868;25.320;2022-12-18T00:02:40;6.00;;;4.47;;
20038;SDS011;21737;42.868;25.320;2022-12-18T00:05:49;5.87;;;4.37;;
20038;SDS011;21737;42.868;25.320;2022-12-18T00:08:51;12.57;;;4.70;;
20038;SDS011;21737;42.868;25.320;2022-12-18T00:11:52;13.20;;;5.10;;
20038;SDS011;21737;42.868;25.320;2022-12-18T00:14:54;5.63;;;4.17;;
20038;SDS011;21737;42.868;25.320;2022-12-18T00:17:55;6.40;;;4.37;;
20038;SDS011;21737;42.868;25.320;2022-12-18T00:21:01;6.23;;;4.20;;
20038;SDS011;21737;42.868;25.320;2022-12-18T00:24:03;5.97;;;4.30;;
20038;SDS011;21737;42.868;25.320;2022-12-18T00:27:04;5.90;;;3.97;;
20038;SDS011;21737;42.868;25.320;2022-12-18T00:30:06;5.67;;;4.03;;
20038;SDS011;21737;42.868;25.320;2022-12-18T00:33:08;6.27;;;4.17;;
20038;SDS011;21737;42.868;25.320;2022-12-18T00:36:11;7.93;;;4.47;;
20038;SDS011;21737;42.868;25.320;2022-12-18T00:39:13;5.67;;;4.20;;
20038;SDS011;21737;42.868;25.320;2022-12-18T00:42:18;5.67;;;4.17;;
20038;SDS011;21737;42.868;25.320;2022-12-18T00:45:39;6.97;;;4.33;;
20038;SDS011;21737;42.868;25.320;2022-12-18T00:48:40;7.80;;;4.30;;
20038;SDS011;21737;42.868;25.320;2022-12-18T00:51:43;6.17;;;4.30;;
20038;SDS011;21737;42.868;25.320;2022-12-18T00:54:45;6.10;;;4.70;;
20038;SDS011;21737;42.868;25.320;2022-12-18T00:57:46;5.60;;;4.50;;
20038;SDS011;21737;42.868;25.320;2022-12-18T01:00:48;9.00;;;4.53;;
20038;SDS011;21737;42.868;25.320;2022-12-18T01:03:50;9.90;;;5.27;;
20038;SDS011;21737;42.868;25.320;2022-12-18T01:06:53;6.83;;;4.63;;
20038;SDS011;21737;42.868;25.320;2022-12-18T01:09:55;7.83;;;5.10;;
20038;SDS011;21737;42.868;25.320;2022-12-18T01:12:57;11.47;;;6.30;;
20038;SDS011;21737;42.868;25.320;2022-12-18T01:15:58;7.70;;;4.80;;
20038;SDS011;21737;42.868;25.320;2022-12-18T01:19:00;9.37;;;5.50;;
20038;SDS011;21737;42.868;25.320;2022-12-18T01:22:02;11.13;;;6.20;;
20038;SDS011;21737;42.868;25.320;2022-12-18T01:25:04;8.00;;;5.70;;
20038;SDS011;21737;42.868;25.320;2022-12-18T01:28:06;7.40;;;5.60;;
20038;SDS011;21737;42.868;25.320;2022-12-18T01:31:09;7.30;;;5.70;;
20038;SDS011;21737;42.868;25.320;2022-12-18T01:34:10;7.30;;;5.40;;
20038;SDS011;21737;42.868;25.320;2022-12-18T01:37:12;8.97;;;5.73;;
20038;SDS011;21737;42.868;25.320;2022-12-18T01:40:14;10.53;;;7.70;;
20038;SDS011;21737;42.868;25.320;2022-12-18T01:43:15;8.57;;;5.80;;
20038;SDS011;21737;42.868;25.320;2022-12-18T01:46:17;10.70;;;6.10;;
20038;SDS011;21737;42.868;25.320;2022-12-18T01:49:20;13.73;;;7.13;;
20038;SDS011;21737;42.868;25.320;2022-12-18T01:52:21;11.77;;;6.87;;
20038;SDS011;21737;42.868;25.320;2022-12-18T01:55:25;13.43;;;7.13;;
20038;SDS011;21737;42.868;25.320;2022-12-18T01:58:48;12.20;;;7.60;;
20038;SDS011;21737;42.868;25.320;2022-12-18T02:01:52;10.57;;;6.77;;
20038;SDS011;21737;42.868;25.320;2022-12-18T02:04:54;10.43;;;6.80;;
20038;SDS011;21737;42.868;25.320;2022-12-18T02:08:08;10.67;;;6.23;;
20038;SDS011;21737;42.868;25.320;2022-12-18T02:11:13;8.97;;;5.40;;
20038;SDS011;21737;42.868;25.320;2022-12-18T02:17:23;9.87;;;6.60;;
20038;SDS011;21737;42.868;25.320;2022-12-18T02:23:47;8.63;;;6.30;;
20038;SDS011;21737;42.868;25.320;2022-12-18T02:26:57;11.70;;;7.03;;
20038;SDS011;21737;42.868;25.320;2022-12-18T02:30:02;11.50;;;7.20;;
20038;SDS011;21737;42.868;25.320;2022-12-18T02:33:06;10.73;;;7.40;;
20038;SDS011;21737;42.868;25.320;2022-12-18T02:36:08;11.27;;;7.23;;
20038;SDS011;21737;42.868;25.320;2022-12-18T02:39:12;11.93;;;8.33;;
20038;SDS011;21737;42.868;25.320;2022-12-18T02:42:23;13.17;;;7.97;;
20038;SDS011;21737;42.868;25.320;2022-12-18T02:45:25;11.97;;;8.00;;
20038;SDS011;21737;42.868;25.320;2022-12-18T02:48:30;12.33;;;8.10;;
20038;SDS011;21737;42.868;25.320;2022-12-18T02:51:35;12.20;;;8.37;;
20038;SDS011;21737;42.868;25.320;2022-12-18T03:05:01;14.33;;;8.60;;
20038;SDS011;21737;42.868;25.320;2022-12-18T03:08:06;15.03;;;8.70;;
20038;SDS011;21737;42.868;25.320;2022-12-18T03:11:12;12.53;;;8.33;;
20038;SDS011;21737;42.868;25.320;2022-12-18T03:14:16;72.23;;;14.13;;
20038;SDS011;21737;42.868;25.320;2022-12-18T03:17:20;15.83;;;9.23;;
20038;SDS011;21737;42.868;25.320;2022-12-18T03:20:25;15.27;;;9.57;;
20038;SDS011;21737;42.868;25.320;2022-12-18T03:23:29;16.63;;;9.80;;
20038;SDS011;21737;42.868;25.320;2022-12-18T03:26:32;17.30;;;9.50;;
20038;SDS011;21737;42.868;25.320;2022-12-18T03:29:47;13.83;;;9.13;;
20038;SDS011;21737;42.868;25.320;2022-12-18T03:36:18;25.80;;;10.20;;
20038;SDS011;21737;42.868;25.320;2022-12-18T03:39:21;15.07;;;9.57;;
20038;SDS011;21737;42.868;25.320;2022-12-18T03:42:29;16.43;;;10.77;;
20038;SDS011;21737;42.868;25.320;2022-12-18T03:45:47;14.93;;;9.47;;
20038;SDS011;21737;42.868;25.320;2022-12-18T03:48:52;17.30;;;10.27;;
20038;SDS011;21737;42.868;25.320;2022-12-18T03:55:33;16.00;;;10.07;;
20038;SDS011;21737;42.868;25.320;2022-12-18T03:58:38;13.53;;;8.83;;
20038;SDS011;21737;42.868;25.320;2022-12-18T04:01:54;15.00;;;9.80;;
20038;SDS011;21737;42.868;25.320;2022-12-18T04:04:58;18.47;;;11.40;;
20038;SDS011;21737;42.868;25.320;2022-12-18T04:08:01;18.90;;;11.27;;
20038;SDS011;21737;42.868;25.320;2022-12-18T04:11:05;18.47;;;10.87;;
20038;SDS011;21737;42.868;25.320;2022-12-18T04:14:07;23.20;;;12.47;;
20038;SDS011;21737;42.868;25.320;2022-12-18T04:17:15;22.27;;;12.97;;
20038;SDS011;21737;42.868;25.320;2022-12-18T04:20:17;22.23;;;13.83;;
20038;SDS011;21737;42.868;25.320;2022-12-18T04:23:19;24.07;;;12.80;;
20038;SDS011;21737;42.868;25.320;2022-12-18T04:26:22;23.97;;;15.07;;
20038;SDS011;21737;42.868;25.320;2022-12-18T04:29:37;25.53;;;14.50;;
20038;SDS011;21737;42.868;25.320;2022-12-18T04:32:39;23.97;;;14.20;;
20038;SDS011;21737;42.868;25.320;2022-12-18T04:35:42;25.27;;;14.30;;
20038;SDS011;21737;42.868;25.320;2022-12-18T04:38:44;22.47;;;14.03;;
20038;SDS011;21737;42.868;25.320;2022-12-18T04:41:49;22.17;;;13.13;;
20038;SDS011;21737;42.868;25.320;2022-12-18T04:44:51;24.20;;;13.17;;
20038;SDS011;21737;42.868;25.320;2022-12-18T04:47:53;27.43;;;15.83;;
20038;SDS011;21737;42.868;25.320;2022-12-18T04:50:54;25.27;;;14.63;;
20038;SDS011;21737;42.868;25.320;2022-12-18T04:53:56;26.63;;;16.57;;
20038;SDS011;21737;42.868;25.320;2022-12-18T04:56:58;24.03;;;14.40;;
20038;SDS011;21737;42.868;25.320;2022-12-18T05:00:00;21.70;;;13.70;;
20038;SDS011;21737;42.868;25.320;2022-12-18T05:03:02;25.93;;;16.07;;
20038;SDS011;21737;42.868;25.320;2022-12-18T05:06:04;26.17;;;16.17;;
20038;SDS011;21737;42.868;25.320;2022-12-18T05:09:06;29.37;;;17.73;;
20038;SDS011;21737;42.868;25.320;2022-12-18T05:12:08;31.67;;;18.73;;
20038;SDS011;21737;42.868;25.320;2022-12-18T05:15:09;29.80;;;18.50;;
20038;SDS011;21737;42.868;25.320;2022-12-18T05:18:11;30.47;;;17.43;;
20038;SDS011;21737;42.868;25.320;2022-12-18T05:21:12;26.60;;;16.27;;
20038;SDS011;21737;42.868;25.320;2022-12-18T05:24:14;27.13;;;16.20;;
20038;SDS011;21737;42.868;25.320;2022-12-18T05:27:16;26.93;;;16.97;;
20038;SDS011;21737;42.868;25.320;2022-12-18T05:30:19;26.80;;;15.20;;
20038;SDS011;21737;42.868;25.320;2022-12-18T05:33:21;25.43;;;15.00;;
20038;SDS011;21737;42.868;25.320;2022-12-18T05:36:23;30.17;;;16.83;;
20038;SDS011;21737;42.868;25.320;2022-12-18T05:39:24;30.30;;;17.00;;
20038;SDS011;21737;42.868;25.320;2022-12-18T05:42:26;33.00;;;19.73;;
20038;SDS011;21737;42.868;25.320;2022-12-18T05:45:27;35.47;;;22.27;;
20038;SDS011;21737;42.868;25.320;2022-12-18T05:48:29;36.37;;;21.20;;
20038;SDS011;21737;42.868;25.320;2022-12-18T05:51:31;35.17;;;20.10;;
20038;SDS011;21737;42.868;25.320;2022-12-18T05:54:32;33.90;;;19.27;;
20038;SDS011;21737;42.868;25.320;2022-12-18T05:57:34;35.10;;;21.33;;
20038;SDS011;21737;42.868;25.320;2022-12-18T06:00:37;35.97;;;22.00;;
20038;SDS011;21737;42.868;25.320;2022-12-18T06:03:41;33.87;;;19.90;;
20038;SDS011;21737;42.868;25.320;2022-12-18T06:06:44;37.13;;;19.57;;
20038;SDS011;21737;42.868;25.320;2022-12-18T06:09:46;35.47;;;19.17;;
20038;SDS011;21737;42.868;25.320;2022-12-18T06:12:47;33.00;;;20.00;;
20038;SDS011;21737;42.868;25.320;2022-12-18T06:15:49;24.13;;;14.37;;
20038;SDS011;21737;42.868;25.320;2022-12-18T06:18:51;25.40;;;16.30;;
20038;SDS011;21737;42.868;25.320;2022-12-18T06:21:52;22.03;;;14.03;;
20038;SDS011;21737;42.868;25.320;2022-12-18T06:24:54;34.53;;;19.67;;
20038;SDS011;21737;42.868;25.320;2022-12-18T06:27:56;38.57;;;22.67;;
20038;SDS011;21737;42.868;25.320;2022-12-18T06:30:57;27.00;;;16.13;;
20038;SDS011;21737;42.868;25.320;2022-12-18T06:34:01;25.07;;;14.77;;
20038;SDS011;21737;42.868;25.320;2022-12-18T06:37:04;26.47;;;15.40;;
20038;SDS011;21737;42.868;25.320;2022-12-18T06:40:06;31.70;;;18.37;;
20038;SDS011;21737;42.868;25.320;2022-12-18T06:43:08;30.03;;;17.17;;
20038;SDS011;21737;42.868;25.320;2022-12-18T06:46:09;24.07;;;15.30;;
20038;SDS011;21737;42.868;25.320;2022-12-18T06:49:11;30.20;;;16.73;;
20038;SDS011;21737;42.868;25.320;2022-12-18T06:52:17;29.47;;;16.57;;
20038;SDS011;21737;42.868;25.320;2022-12-18T06:55:18;26.53;;;13.50;;
20038;SDS011;21737;42.868;25.320;2022-12-18T06:58:20;31.23;;;16.63;;
20038;SDS011;21737;42.868;25.320;2022-12-18T07:01:22;34.43;;;16.33;;
20038;SDS011;21737;42.868;25.320;2022-12-18T07:04:28;33.43;;;16.03;;
20038;SDS011;21737;42.868;25.320;2022-12-18T07:07:30;22.40;;;14.13;;
20038;SDS011;21737;42.868;25.320;2022-12-18T07:10:31;24.17;;;14.17;;
20038;SDS011;21737;42.868;25.320;2022-12-18T07:13:33;22.33;;;12.53;;
20038;SDS011;21737;42.868;25.320;2022-12-18T07:16:34;31.07;;;14.47;;
20038;SDS011;21737;42.868;25.320;2022-12-18T07:19:37;31.57;;;15.77;;
20038;SDS011;21737;42.868;25.320;2022-12-18T07:22:38;22.17;;;13.20;;
20038;SDS011;21737;42.868;25.320;2022-12-18T07:25:40;21.40;;;12.43;;
20038;SDS011;21737;42.868;25.320;2022-12-18T07:28:44;20.17;;;13.17;;
20038;SDS011;21737;42.868;25.320;2022-12-18T07:31:49;29.63;;;15.70;;
20038;SDS011;21737;42.868;25.320;2022-12-18T07:34:50;20.90;;;13.73;;
20038;SDS011;21737;42.868;25.320;2022-12-18T07:37:52;21.37;;;13.03;;
20038;SDS011;21737;42.868;25.320;2022-12-18T07:40:54;26.23;;;13.83;;
20038;SDS011;21737;42.868;25.320;2022-12-18T07:43:55;22.93;;;13.87;;
20038;SDS011;21737;42.868;25.320;2022-12-18T07:46:57;36.33;;;19.30;;
20038;SDS011;21737;42.868;25.320;2022-12-18T07:49:59;25.03;;;14.30;;
20038;SDS011;21737;42.868;25.320;2022-12-18T07:53:00;29.00;;;17.63;;
20038;SDS011;21737;42.868;25.320;2022-12-18T07:56:05;37.80;;;23.10;;
20038;SDS011;21737;42.868;25.320;2022-12-18T07:59:28;31.70;;;17.17;;
20038;SDS011;21737;42.868;25.320;2022-12-18T08:02:35;23.60;;;14.03;;
20038;SDS011;21737;42.868;25.320;2022-12-18T08:05:37;25.60;;;14.73;;
20038;SDS011;21737;42.868;25.320;2022-12-18T08:08:38;28.17;;;15.97;;
20038;SDS011;21737;42.868;25.320;2022-12-18T08:11:42;37.83;;;18.20;;
20038;SDS011;21737;42.868;25.320;2022-12-18T08:14:43;36.83;;;17.97;;
20038;SDS011;21737;42.868;25.320;2022-12-18T08:17:45;28.33;;;15.90;;
20038;SDS011;21737;42.868;25.320;2022-12-18T08:20:47;32.20;;;15.97;;
20038;SDS011;21737;42.868;25.320;2022-12-18T08:23:49;30.97;;;15.73;;
20038;SDS011;21737;42.868;25.320;2022-12-18T08:26:52;38.33;;;15.77;;
20038;SDS011;21737;42.868;25.320;2022-12-18T08:30:13;34.50;;;14.10;;
20038;SDS011;21737;42.868;25.320;2022-12-18T08:33:15;25.20;;;13.43;;
20038;SDS011;21737;42.868;25.320;2022-12-18T08:36:17;23.67;;;13.50;;
20038;SDS011;21737;42.868;25.320;2022-12-18T08:39:19;23.03;;;14.50;;
20038;SDS011;21737;42.868;25.320;2022-12-18T08:42:20;24.40;;;14.03;;
20038;SDS011;21737;42.868;25.320;2022-12-18T08:45:40;21.87;;;13.43;;
20038;SDS011;21737;42.868;25.320;2022-12-18T08:48:42;23.67;;;13.47;;
20038;SDS011;21737;42.868;25.320;2022-12-18T08:51:44;33.63;;;14.03;;
20038;SDS011;21737;42.868;25.320;2022-12-18T08:54:45;26.33;;;14.23;;
20038;SDS011;21737;42.868;25.320;2022-12-18T08:57:50;28.80;;;13.60;;
20038;SDS011;21737;42.868;25.320;2022-12-18T09:00:51;18.60;;;11.00;;
20038;SDS011;21737;42.868;25.320;2022-12-18T09:03:53;19.83;;;12.03;;
20038;SDS011;21737;42.868;25.320;2022-12-18T09:06:55;15.93;;;10.00;;
20038;SDS011;21737;42.868;25.320;2022-12-18T09:09:57;24.50;;;10.60;;
20038;SDS011;21737;42.868;25.320;2022-12-18T09:12:58;28.10;;;13.47;;
20038;SDS011;21737;42.868;25.320;2022-12-18T09:16:00;22.90;;;10.57;;
20038;SDS011;21737;42.868;25.320;2022-12-18T09:19:04;15.43;;;9.23;;
20038;SDS011;21737;42.868;25.320;2022-12-18T09:22:06;19.17;;;9.87;;
20038;SDS011;21737;42.868;25.320;2022-12-18T09:25:08;29.10;;;11.80;;
20038;SDS011;21737;42.868;25.320;2022-12-18T09:28:11;22.80;;;11.03;;
20038;SDS011;21737;42.868;25.320;2022-12-18T09:31:13;30.30;;;12.73;;
20038;SDS011;21737;42.868;25.320;2022-12-18T09:34:15;29.93;;;12.83;;
20038;SDS011;21737;42.868;25.320;2022-12-18T09:37:18;21.63;;;10.93;;
20038;SDS011;21737;42.868;25.320;2022-12-18T09:40:21;23.73;;;13.33;;
20038;SDS011;21737;42.868;25.320;2022-12-18T09:43:28;21.23;;;11.13;;
20038;SDS011;21737;42.868;25.320;2022-12-18T09:46:35;17.23;;;9.97;;
20038;SDS011;21737;42.868;25.320;2022-12-18T09:49:40;25.73;;;12.60;;
20038;SDS011;21737;42.868;25.320;2022-12-18T09:52:47;21.90;;;11.73;;
20038;SDS011;21737;42.868;25.320;2022-12-18T09:55:50;20.87;;;10.63;;
20038;SDS011;21737;42.868;25.320;2022-12-18T09:59:02;29.50;;;16.30;;
20038;SDS011;21737;42.868;25.320;2022-12-18T10:02:15;29.80;;;15.90;;
20038;SDS011;21737;42.868;25.320;2022-12-18T10:05:20;22.73;;;13.70;;
20038;SDS011;21737;42.868;25.320;2022-12-18T10:08:24;20.67;;;10.93;;
20038;SDS011;21737;42.868;25.320;2022-12-18T10:21:03;19.53;;;11.07;;
20038;SDS011;21737;42.868;25.320;2022-12-18T10:27:14;22.33;;;10.23;;
20038;SDS011;21737;42.868;25.320;2022-12-18T10:30:17;17.20;;;9.90;;
20038;SDS011;21737;42.868;25.320;2022-12-18T10:33:20;17.63;;;10.93;;
20038;SDS011;21737;42.868;25.320;2022-12-18T10:36:23;14.57;;;9.03;;
20038;SDS011;21737;42.868;25.320;2022-12-18T10:39:25;19.53;;;10.00;;
20038;SDS011;21737;42.868;25.320;2022-12-18T10:42:30;12.37;;;7.27;;
20038;SDS011;21737;42.868;25.320;2022-12-18T10:45:32;16.37;;;8.80;;
20038;SDS011;21737;42.868;25.320;2022-12-18T10:48:56;13.30;;;6.57;;
20038;SDS011;21737;42.868;25.320;2022-12-18T10:55:13;20.83;;;11.77;;
20038;SDS011;21737;42.868;25.320;2022-12-18T10:58:28;10.40;;;6.63;;
20038;SDS011;21737;42.868;25.320;2022-12-18T11:01:45;9.30;;;5.93;;
20038;SDS011;21737;42.868;25.320;2022-12-18T11:04:50;11.30;;;6.60;;
20038;SDS011;21737;42.868;25.320;2022-12-18T11:07:53;11.80;;;7.30;;
20038;SDS011;21737;42.868;25.320;2022-12-18T11:10:57;16.60;;;9.00;;
20038;SDS011;21737;42.868;25.320;2022-12-18T11:14:03;15.60;;;8.63;;
20038;SDS011;21737;42.868;25.320;2022-12-18T11:17:16;15.20;;;8.73;;
20038;SDS011;21737;42.868;25.320;2022-12-18T11:20:30;11.70;;;7.40;;
20038;SDS011;21737;42.868;25.320;2022-12-18T11:23:33;16.70;;;8.87;;
20038;SDS011;21737;42.868;25.320;2022-12-18T11:26:35;14.47;;;8.40;;
20038;SDS011;21737;42.868;25.320;2022-12-18T11:29:38;16.03;;;8.67;;
20038;SDS011;21737;42.868;25.320;2022-12-18T11:32:47;12.53;;;7.57;;
20038;SDS011;21737;42.868;25.320;2022-12-18T11:35:57;17.50;;;9.37;;
20038;SDS011;21737;42.868;25.320;2022-12-18T11:39:02;19.97;;;9.80;;
20038;SDS011;21737;42.868;25.320;2022-12-18T11:42:08;13.60;;;7.80;;
20038;SDS011;21737;42.868;25.320;2022-12-18T11:51:28;11.70;;;6.27;;
20038;SDS011;21737;42.868;25.320;2022-12-18T11:54:33;15.60;;;8.13;;
20038;SDS011;21737;42.868;25.320;2022-12-18T12:04:40;21.90;;;12.70;;
20038;SDS011;21737;42.868;25.320;2022-12-18T12:07:37;15.47;;;8.43;;
20038;SDS011;21737;42.868;25.320;2022-12-18T12:14:29;19.90;;;10.30;;
20038;SDS011;21737;42.868;25.320;2022-12-18T12:27:06;10.23;;;7.13;;
20038;SDS011;21737;42.868;25.320;2022-12-18T12:30:20;14.07;;;7.67;;
20038;SDS011;21737;42.868;25.320;2022-12-18T12:33:31;14.93;;;7.27;;
20038;SDS011;21737;42.868;25.320;2022-12-18T12:39:44;14.10;;;8.40;;
20038;SDS011;21737;42.868;25.320;2022-12-18T12:42:50;13.27;;;7.83;;
20038;SDS011;21737;42.868;25.320;2022-12-18T12:46:13;13.53;;;7.93;;
20038;SDS011;21737;42.868;25.320;2022-12-18T12:49:17;18.17;;;10.33;;
20038;SDS011;21737;42.868;25.320;2022-12-18T12:52:36;16.17;;;8.90;;
20038;SDS011;21737;42.868;25.320;2022-12-18T12:55:38;25.23;;;13.37;;
20038;SDS011;21737;42.868;25.320;2022-12-18T13:02:28;13.47;;;7.60;;
20038;SDS011;21737;42.868;25.320;2022-12-18T13:08:29;15.20;;;9.23;;
20038;SDS011;21737;42.868;25.320;2022-12-18T13:15:20;20.67;;;13.17;;
20038;SDS011;21737;42.868;25.320;2022-12-18T13:18:22;23.73;;;14.00;;
20038;SDS011;21737;42.868;25.320;2022-12-18T13:21:25;17.13;;;8.23;;
20038;SDS011;21737;42.868;25.320;2022-12-18T13:24:30;14.50;;;8.60;;
20038;SDS011;21737;42.868;25.320;2022-12-18T13:30:51;17.50;;;10.50;;
20038;SDS011;21737;42.868;25.320;2022-12-18T13:34:16;23.37;;;13.00;;
20038;SDS011;21737;42.868;25.320;2022-12-18T13:46:50;26.20;;;9.70;;
20038;SDS011;21737;42.868;25.320;2022-12-18T13:49:52;27.80;;;13.50;;
20038;SDS011;21737;42.868;25.320;2022-12-18T13:52:54;22.87;;;11.40;;
20038;SDS011;21737;42.868;25.320;2022-12-18T13:55:55;19.30;;;10.83;;
20038;SDS011;21737;42.868;25.320;2022-12-18T14:02:28;22.83;;;12.30;;
20038;SDS011;21737;42.868;25.320;2022-12-18T14:05:32;23.13;;;11.57;;
20038;SDS011;21737;42.868;25.320;2022-12-18T14:08:39;17.30;;;9.97;;
20038;SDS011;21737;42.868;25.320;2022-12-18T14:11:46;17.73;;;11.03;;
20038;SDS011;21737;42.868;25.320;2022-12-18T14:14:49;20.87;;;11.10;;
20038;SDS011;21737;42.868;25.320;2022-12-18T14:17:59;15.97;;;8.40;;
20038;SDS011;21737;42.868;25.320;2022-12-18T14:21:03;38.30;;;21.27;;
20038;SDS011;21737;42.868;25.320;2022-12-18T14:27:19;16.93;;;10.27;;
20038;SDS011;21737;42.868;25.320;2022-12-18T14:30:37;13.67;;;7.23;;
20038;SDS011;21737;42.868;25.320;2022-12-18T14:33:39;15.50;;;8.10;;
20038;SDS011;21737;42.868;25.320;2022-12-18T14:36:41;14.03;;;8.50;;
20038;SDS011;21737;42.868;25.320;2022-12-18T14:42:58;15.63;;;8.63;;
20038;SDS011;21737;42.868;25.320;2022-12-18T14:46:00;20.23;;;9.93;;
20038;SDS011;21737;42.868;25.320;2022-12-18T14:52:26;24.80;;;12.90;;
20038;SDS011;21737;42.868;25.320;2022-12-18T14:55:29;28.37;;;14.37;;
20038;SDS011;21737;42.868;25.320;2022-12-18T14:58:31;27.03;;;14.67;;
20038;SDS011;21737;42.868;25.320;2022-12-18T15:01:33;22.37;;;11.87;;
20038;SDS011;21737;42.868;25.320;2022-12-18T15:04:38;22.20;;;12.67;;
20038;SDS011;21737;42.868;25.320;2022-12-18T15:07:46;25.33;;;13.13;;
20038;SDS011;21737;42.868;25.320;2022-12-18T15:10:48;22.80;;;12.33;;
20038;SDS011;21737;42.868;25.320;2022-12-18T15:13:49;28.33;;;15.43;;
20038;SDS011;21737;42.868;25.320;2022-12-18T15:16:52;30.53;;;15.27;;
20038;SDS011;21737;42.868;25.320;2022-12-18T15:19:58;34.70;;;17.83;;
20038;SDS011;21737;42.868;25.320;2022-12-18T15:23:01;24.33;;;13.47;;
20038;SDS011;21737;42.868;25.320;2022-12-18T15:26:06;24.23;;;13.30;;
20038;SDS011;21737;42.868;25.320;2022-12-18T15:29:20;31.27;;;15.70;;
20038;SDS011;21737;42.868;25.320;2022-12-18T15:32:23;24.70;;;14.33;;
20038;SDS011;21737;42.868;25.320;2022-12-18T15:35:24;26.73;;;13.67;;
20038;SDS011;21737;42.868;25.320;2022-12-18T15:38:26;22.90;;;13.20;;
20038;SDS011;21737;42.868;25.320;2022-12-18T15:41:30;22.40;;;12.20;;
20038;SDS011;21737;42.868;25.320;2022-12-18T15:44:33;31.97;;;18.10;;
20038;SDS011;21737;42.868;25.320;2022-12-18T15:47:35;56.13;;;26.47;;
20038;SDS011;21737;42.868;25.320;2022-12-18T15:50:36;32.43;;;17.07;;
20038;SDS011;21737;42.868;25.320;2022-12-18T15:53:38;25.60;;;13.20;;
20038;SDS011;21737;42.868;25.320;2022-12-18T15:56:40;23.83;;;13.60;;
20038;SDS011;21737;42.868;25.320;2022-12-18T16:00:00;18.17;;;10.57;;
20038;SDS011;21737;42.868;25.320;2022-12-18T16:03:05;28.43;;;12.97;;
20038;SDS011;21737;42.868;25.320;2022-12-18T16:06:08;24.17;;;13.53;;
20038;SDS011;21737;42.868;25.320;2022-12-18T16:09:10;17.47;;;9.20;;
20038;SDS011;21737;42.868;25.320;2022-12-18T16:12:16;17.33;;;9.97;;
20038;SDS011;21737;42.868;25.320;2022-12-18T16:15:18;14.17;;;9.00;;
20038;SDS011;21737;42.868;25.320;2022-12-18T16:18:25;19.73;;;10.50;;
20038;SDS011;21737;42.868;25.320;2022-12-18T16:21:26;16.10;;;9.43;;
20038;SDS011;21737;42.868;25.320;2022-12-18T16:24:34;17.80;;;8.77;;
20038;SDS011;21737;42.868;25.320;2022-12-18T16:27:37;15.93;;;9.10;;
20038;SDS011;21737;42.868;25.320;2022-12-18T16:30:39;15.73;;;9.13;;
20038;SDS011;21737;42.868;25.320;2022-12-18T16:33:41;18.60;;;11.27;;
20038;SDS011;21737;42.868;25.320;2022-12-18T16:36:44;18.60;;;10.87;;
20038;SDS011;21737;42.868;25.320;2022-12-18T16:39:45;16.37;;;9.33;;
20038;SDS011;21737;42.868;25.320;2022-12-18T16:42:47;17.10;;;9.10;;
20038;SDS011;21737;42.868;25.320;2022-12-18T16:45:49;23.77;;;13.43;;
20038;SDS011;21737;42.868;25.320;2022-12-18T16:48:52;24.33;;;13.30;;
20038;SDS011;21737;42.868;25.320;2022-12-18T16:51:53;21.83;;;11.23;;
20038;SDS011;21737;42.868;25.320;2022-12-18T16:54:55;23.17;;;11.97;;
20038;SDS011;21737;42.868;25.320;2022-12-18T16:57:57;22.97;;;13.23;;
20038;SDS011;21737;42.868;25.320;2022-12-18T17:00:58;78.43;;;19.53;;
20038;SDS011;21737;42.868;25.320;2022-12-18T17:04:01;25.77;;;13.87;;
20038;SDS011;21737;42.868;25.320;2022-12-18T17:07:03;22.47;;;12.50;;
20038;SDS011;21737;42.868;25.320;2022-12-18T17:10:05;25.40;;;14.83;;
20038;SDS011;21737;42.868;25.320;2022-12-18T17:13:07;26.33;;;14.67;;
20038;SDS011;21737;42.868;25.320;2022-12-18T17:16:08;30.30;;;15.53;;
20038;SDS011;21737;42.868;25.320;2022-12-18T17:19:10;24.77;;;13.03;;
20038;SDS011;21737;42.868;25.320;2022-12-18T17:22:17;24.27;;;13.73;;
20038;SDS011;21737;42.868;25.320;2022-12-18T17:25:19;22.03;;;12.83;;
20038;SDS011;21737;42.868;25.320;2022-12-18T17:28:21;24.03;;;13.57;;
20038;SDS011;21737;42.868;25.320;2022-12-18T17:31:23;33.03;;;18.33;;
20038;SDS011;21737;42.868;25.320;2022-12-18T17:34:25;29.80;;;16.70;;
20038;SDS011;21737;42.868;25.320;2022-12-18T17:37:27;27.60;;;15.33;;
20038;SDS011;21737;42.868;25.320;2022-12-18T17:40:28;26.10;;;12.83;;
20038;SDS011;21737;42.868;25.320;2022-12-18T17:43:33;24.60;;;13.27;;
20038;SDS011;21737;42.868;25.320;2022-12-18T17:46:40;23.50;;;12.63;;
20038;SDS011;21737;42.868;25.320;2022-12-18T17:49:42;23.90;;;13.80;;
20038;SDS011;21737;42.868;25.320;2022-12-18T17:52:44;19.47;;;10.43;;
20038;SDS011;21737;42.868;25.320;2022-12-18T17:55:58;18.67;;;10.27;;
20038;SDS011;21737;42.868;25.320;2022-12-18T17:59:02;21.03;;;11.83;;
20038;SDS011;21737;42.868;25.320;2022-12-18T18:02:04;18.97;;;10.13;;
20038;SDS011;21737;42.868;25.320;2022-12-18T18:05:06;22.20;;;11.10;;
20038;SDS011;21737;42.868;25.320;2022-12-18T18:08:11;22.97;;;12.03;;
20038;SDS011;21737;42.868;25.320;2022-12-18T18:11:15;23.77;;;12.23;;
20038;SDS011;21737;42.868;25.320;2022-12-18T18:14:36;21.27;;;10.83;;
20038;SDS011;21737;42.868;25.320;2022-12-18T18:17:38;35.50;;;16.40;;
20038;SDS011;21737;42.868;25.320;2022-12-18T18:20:39;30.43;;;15.57;;
20038;SDS011;21737;42.868;25.320;2022-12-18T18:23:42;27.73;;;13.10;;
20038;SDS011;21737;42.868;25.320;2022-12-18T18:26:46;31.40;;;16.27;;
20038;SDS011;21737;42.868;25.320;2022-12-18T18:29:47;29.00;;;13.47;;
20038;SDS011;21737;42.868;25.320;2022-12-18T18:32:49;37.13;;;15.93;;
20038;SDS011;21737;42.868;25.320;2022-12-18T18:35:53;35.00;;;14.27;;
20038;SDS011;21737;42.868;25.320;2022-12-18T18:38:56;34.67;;;16.37;;
20038;SDS011;21737;42.868;25.320;2022-12-18T18:41:58;33.07;;;14.73;;
20038;SDS011;21737;42.868;25.320;2022-12-18T18:45:00;37.77;;;16.90;;
20038;SDS011;21737;42.868;25.320;2022-12-18T18:48:01;29.97;;;15.60;;
20038;SDS011;21737;42.868;25.320;2022-12-18T18:51:07;45.50;;;24.07;;
20038;SDS011;21737;42.868;25.320;2022-12-18T18:54:11;29.53;;;16.27;;
20038;SDS011;21737;42.868;25.320;2022-12-18T18:57:13;25.70;;;13.90;;
20038;SDS011;21737;42.868;25.320;2022-12-18T19:00:29;35.23;;;17.03;;
20038;SDS011;21737;42.868;25.320;2022-12-18T19:03:30;35.80;;;16.33;;
20038;SDS011;21737;42.868;25.320;2022-12-18T19:06:35;33.37;;;16.30;;
20038;SDS011;21737;42.868;25.320;2022-12-18T19:09:37;26.03;;;13.97;;
20038;SDS011;21737;42.868;25.320;2022-12-18T19:12:39;28.37;;;14.77;;
20038;SDS011;21737;42.868;25.320;2022-12-18T19:16:03;27.47;;;15.77;;
20038;SDS011;21737;42.868;25.320;2022-12-18T19:19:05;32.40;;;16.83;;
20038;SDS011;21737;42.868;25.320;2022-12-18T19:22:07;30.77;;;14.17;;
20038;SDS011;21737;42.868;25.320;2022-12-18T19:25:10;36.77;;;19.27;;
20038;SDS011;21737;42.868;25.320;2022-12-18T19:28:11;29.90;;;14.87;;
20038;SDS011;21737;42.868;25.320;2022-12-18T19:31:22;26.53;;;13.47;;
20038;SDS011;21737;42.868;25.320;2022-12-18T19:34:28;25.17;;;12.87;;